sensor_id;sensor_type;location;lat;lon;timestamp;P1;durP1;ratioP1;P2;durP2;ratioP2
12788;SDS011;6458;42.710;23.192;2023-03-01T00:02:13;6.00;;;3.70;;
12788;SDS011;6458;42.710;23.192;2023-03-01T00:04:40;4.33;;;3.93;;
12788;SDS011;6458;42.710;23.192;2023-03-01T00:07:06;3.77;;;3.27;;
12788;SDS011;6458;42.710;23.192;2023-03-01T00:09:33;6.43;;;4.50;;
12788;SDS011;6458;42.710;23.192;2023-03-01T00:12:01;4.60;;;4.17;;
12788;SDS011;6458;42.710;23.192;2023-03-01T00:14:28;3.30;;;3.03;;
12788;SDS011;6458;42.710;23.192;2023-03-01T00:16:55;4.37;;;4.00;;
12788;SDS011;6458;42.710;23.192;2023-03-01T00:19:23;4.53;;;3.97;;
12788;SDS011;6458;42.710;23.192;2023-03-01T00:21:50;7.87;;;4.13;;
12788;SDS011;6458;42.710;23.192;2023-03-01T00:24:17;4.13;;;3.73;;
12788;SDS011;6458;42.710;23.192;2023-03-01T00:26:44;8.73;;;7.07;;
12788;SDS011;6458;42.710;23.192;2023-03-01T00:29:13;11.67;;;9.27;;
12788;SDS011;6458;42.710;23.192;2023-03-01T00:31:39;15.17;;;12.47;;
12788;SDS011;6458;42.710;23.192;2023-03-01T00:34:06;13.17;;;10.13;;
12788;SDS011;6458;42.710;23.192;2023-03-01T00:36:33;10.07;;;8.50;;
12788;SDS011;6458;42.710;23.192;2023-03-01T00:39:01;7.47;;;4.77;;
12788;SDS011;6458;42.710;23.192;2023-03-01T00:41:29;4.83;;;4.43;;
12788;SDS011;6458;42.710;23.192;2023-03-01T00:43:56;6.70;;;5.33;;
12788;SDS011;6458;42.710;23.192;2023-03-01T00:46:25;4.23;;;3.87;;
12788;SDS011;6458;42.710;23.192;2023-03-01T00:48:52;4.10;;;3.77;;
12788;SDS011;6458;42.710;23.192;2023-03-01T00:51:19;5.07;;;4.57;;
12788;SDS011;6458;42.710;23.192;2023-03-01T00:53:47;3.43;;;3.20;;
12788;SDS011;6458;42.710;23.192;2023-03-01T00:56:16;4.43;;;3.67;;
12788;SDS011;6458;42.710;23.192;2023-03-01T00:58:42;3.93;;;3.63;;
12788;SDS011;6458;42.710;23.192;2023-03-01T01:01:09;3.77;;;3.43;;
12788;SDS011;6458;42.710;23.192;2023-03-01T01:03:44;3.27;;;3.03;;
12788;SDS011;6458;42.710;23.192;2023-03-01T01:06:15;2.83;;;2.70;;
12788;SDS011;6458;42.710;23.192;2023-03-01T01:08:41;4.43;;;4.03;;
12788;SDS011;6458;42.710;23.192;2023-03-01T01:11:08;2.63;;;2.53;;
12788;SDS011;6458;42.710;23.192;2023-03-01T01:13:35;2.20;;;2.10;;
12788;SDS011;6458;42.710;23.192;2023-03-01T01:16:03;3.20;;;3.00;;
12788;SDS011;6458;42.710;23.192;2023-03-01T01:18:30;3.63;;;3.43;;
12788;SDS011;6458;42.710;23.192;2023-03-01T01:21:02;2.53;;;2.43;;
12788;SDS011;6458;42.710;23.192;2023-03-01T01:23:29;3.73;;;3.10;;
12788;SDS011;6458;42.710;23.192;2023-03-01T01:25:56;3.03;;;2.83;;
12788;SDS011;6458;42.710;23.192;2023-03-01T01:28:22;3.30;;;3.00;;
12788;SDS011;6458;42.710;23.192;2023-03-01T01:30:49;3.07;;;2.87;;
12788;SDS011;6458;42.710;23.192;2023-03-01T01:33:16;3.17;;;2.83;;
12788;SDS011;6458;42.710;23.192;2023-03-01T01:35:44;3.97;;;3.67;;
12788;SDS011;6458;42.710;23.192;2023-03-01T01:38:13;3.27;;;3.07;;
12788;SDS011;6458;42.710;23.192;2023-03-01T01:40:42;3.27;;;3.03;;
12788;SDS011;6458;42.710;23.192;2023-03-01T01:43:12;3.07;;;2.87;;
12788;SDS011;6458;42.710;23.192;2023-03-01T01:45:40;3.30;;;3.00;;
12788;SDS011;6458;42.710;23.192;2023-03-01T01:48:10;4.00;;;3.60;;
12788;SDS011;6458;42.710;23.192;2023-03-01T01:50:39;2.90;;;2.70;;
12788;SDS011;6458;42.710;23.192;2023-03-01T01:53:08;2.80;;;2.70;;
12788;SDS011;6458;42.710;23.192;2023-03-01T01:55:37;3.30;;;3.00;;
12788;SDS011;6458;42.710;23.192;2023-03-01T01:58:06;3.87;;;3.67;;
12788;SDS011;6458;42.710;23.192;2023-03-01T02:00:35;3.43;;;3.23;;
12788;SDS011;6458;42.710;23.192;2023-03-01T02:03:04;3.83;;;3.53;;
12788;SDS011;6458;42.710;23.192;2023-03-01T02:05:34;3.30;;;3.10;;
12788;SDS011;6458;42.710;23.192;2023-03-01T02:08:03;3.50;;;3.30;;
12788;SDS011;6458;42.710;23.192;2023-03-01T02:10:29;3.90;;;3.63;;
12788;SDS011;6458;42.710;23.192;2023-03-01T02:13:00;3.63;;;3.43;;
12788;SDS011;6458;42.710;23.192;2023-03-01T02:15:27;3.20;;;3.00;;
12788;SDS011;6458;42.710;23.192;2023-03-01T02:17:57;3.47;;;3.20;;
12788;SDS011;6458;42.710;23.192;2023-03-01T02:20:26;2.40;;;2.30;;
12788;SDS011;6458;42.710;23.192;2023-03-01T02:22:53;2.77;;;2.57;;
12788;SDS011;6458;42.710;23.192;2023-03-01T02:25:27;4.10;;;3.80;;
12788;SDS011;6458;42.710;23.192;2023-03-01T02:27:58;3.50;;;3.30;;
12788;SDS011;6458;42.710;23.192;2023-03-01T02:30:29;3.40;;;3.17;;
12788;SDS011;6458;42.710;23.192;2023-03-01T02:32:57;3.03;;;2.87;;
12788;SDS011;6458;42.710;23.192;2023-03-01T02:35:27;2.60;;;2.40;;
12788;SDS011;6458;42.710;23.192;2023-03-01T02:37:55;3.17;;;2.87;;
12788;SDS011;6458;42.710;23.192;2023-03-01T02:40:25;4.77;;;4.47;;
12788;SDS011;6458;42.710;23.192;2023-03-01T02:42:54;2.97;;;2.77;;
12788;SDS011;6458;42.710;23.192;2023-03-01T02:45:21;4.73;;;3.40;;
12788;SDS011;6458;42.710;23.192;2023-03-01T02:47:50;3.07;;;2.87;;
12788;SDS011;6458;42.710;23.192;2023-03-01T02:50:22;3.60;;;3.33;;
12788;SDS011;6458;42.710;23.192;2023-03-01T02:52:52;2.87;;;2.60;;
12788;SDS011;6458;42.710;23.192;2023-03-01T02:55:19;3.57;;;3.37;;
12788;SDS011;6458;42.710;23.192;2023-03-01T02:57:46;4.00;;;3.70;;
12788;SDS011;6458;42.710;23.192;2023-03-01T03:00:16;3.60;;;3.40;;
12788;SDS011;6458;42.710;23.192;2023-03-01T03:02:45;3.50;;;3.30;;
12788;SDS011;6458;42.710;23.192;2023-03-01T03:05:15;3.10;;;2.90;;
12788;SDS011;6458;42.710;23.192;2023-03-01T03:07:42;3.73;;;3.43;;
12788;SDS011;6458;42.710;23.192;2023-03-01T03:10:10;2.93;;;2.73;;
12788;SDS011;6458;42.710;23.192;2023-03-01T03:12:37;2.50;;;2.40;;
12788;SDS011;6458;42.710;23.192;2023-03-01T03:15:04;2.27;;;2.17;;
12788;SDS011;6458;42.710;23.192;2023-03-01T03:17:34;1.90;;;1.90;;
12788;SDS011;6458;42.710;23.192;2023-03-01T03:20:00;1.73;;;1.73;;
12788;SDS011;6458;42.710;23.192;2023-03-01T03:22:30;2.00;;;1.90;;
12788;SDS011;6458;42.710;23.192;2023-03-01T03:24:59;3.73;;;2.13;;
12788;SDS011;6458;42.710;23.192;2023-03-01T03:27:26;2.83;;;2.70;;
12788;SDS011;6458;42.710;23.192;2023-03-01T03:29:54;2.47;;;2.30;;
12788;SDS011;6458;42.710;23.192;2023-03-01T03:32:20;2.53;;;2.43;;
12788;SDS011;6458;42.710;23.192;2023-03-01T03:34:47;2.47;;;2.37;;
12788;SDS011;6458;42.710;23.192;2023-03-01T03:37:14;2.27;;;2.17;;
12788;SDS011;6458;42.710;23.192;2023-03-01T03:39:56;3.03;;;2.83;;
12788;SDS011;6458;42.710;23.192;2023-03-01T03:42:22;2.77;;;2.67;;
12788;SDS011;6458;42.710;23.192;2023-03-01T03:47:34;4.43;;;3.17;;
12788;SDS011;6458;42.710;23.192;2023-03-01T03:50:01;3.30;;;3.00;;
12788;SDS011;6458;42.710;23.192;2023-03-01T03:52:28;2.83;;;2.33;;
12788;SDS011;6458;42.710;23.192;2023-03-01T03:54:56;3.07;;;2.90;;
12788;SDS011;6458;42.710;23.192;2023-03-01T03:57:23;3.50;;;3.30;;
12788;SDS011;6458;42.710;23.192;2023-03-01T04:00:07;3.00;;;2.87;;
12788;SDS011;6458;42.710;23.192;2023-03-01T04:02:38;3.27;;;3.07;;
12788;SDS011;6458;42.710;23.192;2023-03-01T04:05:05;3.13;;;2.97;;
12788;SDS011;6458;42.710;23.192;2023-03-01T04:07:33;3.47;;;3.27;;
12788;SDS011;6458;42.710;23.192;2023-03-01T04:10:01;2.93;;;2.73;;
12788;SDS011;6458;42.710;23.192;2023-03-01T04:12:28;2.17;;;2.07;;
12788;SDS011;6458;42.710;23.192;2023-03-01T04:17:24;2.10;;;2.00;;
12788;SDS011;6458;42.710;23.192;2023-03-01T04:19:51;2.20;;;2.00;;
12788;SDS011;6458;42.710;23.192;2023-03-01T04:22:18;2.40;;;2.20;;
12788;SDS011;6458;42.710;23.192;2023-03-01T04:24:45;1.83;;;1.73;;
12788;SDS011;6458;42.710;23.192;2023-03-01T04:27:13;1.80;;;1.70;;
12788;SDS011;6458;42.710;23.192;2023-03-01T04:29:40;2.30;;;2.20;;
12788;SDS011;6458;42.710;23.192;2023-03-01T04:32:07;2.00;;;2.00;;
12788;SDS011;6458;42.710;23.192;2023-03-01T04:34:36;2.90;;;2.70;;
12788;SDS011;6458;42.710;23.192;2023-03-01T04:37:02;2.03;;;1.97;;
12788;SDS011;6458;42.710;23.192;2023-03-01T04:39:29;1.77;;;1.77;;
12788;SDS011;6458;42.710;23.192;2023-03-01T04:41:57;2.47;;;2.37;;
12788;SDS011;6458;42.710;23.192;2023-03-01T04:44:25;2.10;;;2.00;;
12788;SDS011;6458;42.710;23.192;2023-03-01T04:46:52;1.77;;;1.70;;
12788;SDS011;6458;42.710;23.192;2023-03-01T04:49:19;2.30;;;2.20;;
12788;SDS011;6458;42.710;23.192;2023-03-01T04:51:46;1.97;;;1.83;;
12788;SDS011;6458;42.710;23.192;2023-03-01T04:54:12;3.03;;;2.73;;
12788;SDS011;6458;42.710;23.192;2023-03-01T04:56:39;2.20;;;2.10;;
12788;SDS011;6458;42.710;23.192;2023-03-01T04:59:06;2.20;;;2.10;;
12788;SDS011;6458;42.710;23.192;2023-03-01T05:01:36;2.93;;;2.73;;
12788;SDS011;6458;42.710;23.192;2023-03-01T05:04:04;7.53;;;2.67;;
12788;SDS011;6458;42.710;23.192;2023-03-01T05:06:32;2.37;;;2.27;;
12788;SDS011;6458;42.710;23.192;2023-03-01T05:08:59;2.63;;;2.23;;
12788;SDS011;6458;42.710;23.192;2023-03-01T05:11:26;2.30;;;2.20;;
12788;SDS011;6458;42.710;23.192;2023-03-01T05:13:58;4.37;;;2.67;;
12788;SDS011;6458;42.710;23.192;2023-03-01T05:16:25;2.77;;;2.67;;
12788;SDS011;6458;42.710;23.192;2023-03-01T05:18:53;2.10;;;2.00;;
12788;SDS011;6458;42.710;23.192;2023-03-01T05:21:20;1.90;;;1.83;;
12788;SDS011;6458;42.710;23.192;2023-03-01T05:23:48;2.60;;;2.50;;
12788;SDS011;6458;42.710;23.192;2023-03-01T05:26:15;2.70;;;2.60;;
12788;SDS011;6458;42.710;23.192;2023-03-01T05:28:43;2.37;;;2.27;;
12788;SDS011;6458;42.710;23.192;2023-03-01T05:31:10;2.90;;;2.80;;
12788;SDS011;6458;42.710;23.192;2023-03-01T05:33:37;2.50;;;2.30;;
12788;SDS011;6458;42.710;23.192;2023-03-01T05:36:08;2.63;;;2.53;;
12788;SDS011;6458;42.710;23.192;2023-03-01T05:38:35;2.90;;;2.70;;
12788;SDS011;6458;42.710;23.192;2023-03-01T05:41:02;2.83;;;2.67;;
12788;SDS011;6458;42.710;23.192;2023-03-01T05:43:30;2.90;;;2.73;;
12788;SDS011;6458;42.710;23.192;2023-03-01T05:45:57;3.23;;;3.03;;
12788;SDS011;6458;42.710;23.192;2023-03-01T05:48:25;3.13;;;2.93;;
12788;SDS011;6458;42.710;23.192;2023-03-01T05:50:51;2.57;;;2.37;;
12788;SDS011;6458;42.710;23.192;2023-03-01T05:53:20;2.93;;;2.73;;
12788;SDS011;6458;42.710;23.192;2023-03-01T05:55:47;4.60;;;2.90;;
12788;SDS011;6458;42.710;23.192;2023-03-01T05:58:15;2.23;;;2.13;;
12788;SDS011;6458;42.710;23.192;2023-03-01T06:00:43;3.07;;;2.87;;
12788;SDS011;6458;42.710;23.192;2023-03-01T06:03:10;3.23;;;3.03;;
12788;SDS011;6458;42.710;23.192;2023-03-01T06:05:37;4.00;;;3.73;;
12788;SDS011;6458;42.710;23.192;2023-03-01T06:08:04;3.10;;;2.90;;
12788;SDS011;6458;42.710;23.192;2023-03-01T06:10:32;4.40;;;3.63;;
12788;SDS011;6458;42.710;23.192;2023-03-01T06:12:59;3.97;;;3.57;;
12788;SDS011;6458;42.710;23.192;2023-03-01T06:15:26;3.30;;;3.10;;
12788;SDS011;6458;42.710;23.192;2023-03-01T06:17:53;3.93;;;3.63;;
12788;SDS011;6458;42.710;23.192;2023-03-01T06:20:23;3.77;;;3.47;;
12788;SDS011;6458;42.710;23.192;2023-03-01T06:22:50;4.03;;;3.77;;
12788;SDS011;6458;42.710;23.192;2023-03-01T06:25:17;4.43;;;4.13;;
12788;SDS011;6458;42.710;23.192;2023-03-01T06:27:46;5.17;;;4.63;;
12788;SDS011;6458;42.710;23.192;2023-03-01T06:30:14;4.70;;;3.67;;
12788;SDS011;6458;42.710;23.192;2023-03-01T06:32:41;3.87;;;3.57;;
12788;SDS011;6458;42.710;23.192;2023-03-01T06:35:08;5.00;;;4.60;;
12788;SDS011;6458;42.710;23.192;2023-03-01T06:37:35;4.93;;;4.00;;
12788;SDS011;6458;42.710;23.192;2023-03-01T06:40:02;4.53;;;4.13;;
12788;SDS011;6458;42.710;23.192;2023-03-01T06:42:33;3.33;;;3.03;;
12788;SDS011;6458;42.710;23.192;2023-03-01T06:45:04;4.77;;;4.37;;
12788;SDS011;6458;42.710;23.192;2023-03-01T06:47:32;7.87;;;5.73;;
12788;SDS011;6458;42.710;23.192;2023-03-01T06:49:59;4.30;;;3.90;;
12788;SDS011;6458;42.710;23.192;2023-03-01T06:52:26;6.63;;;4.97;;
12788;SDS011;6458;42.710;23.192;2023-03-01T06:54:54;5.37;;;4.73;;
12788;SDS011;6458;42.710;23.192;2023-03-01T06:57:21;4.67;;;4.27;;
12788;SDS011;6458;42.710;23.192;2023-03-01T06:59:48;5.87;;;4.43;;
12788;SDS011;6458;42.710;23.192;2023-03-01T07:02:17;4.30;;;4.00;;
12788;SDS011;6458;42.710;23.192;2023-03-01T07:04:44;6.53;;;4.53;;
12788;SDS011;6458;42.710;23.192;2023-03-01T07:07:11;4.57;;;4.13;;
12788;SDS011;6458;42.710;23.192;2023-03-01T07:09:38;5.00;;;4.50;;
12788;SDS011;6458;42.710;23.192;2023-03-01T07:12:05;4.03;;;3.67;;
12788;SDS011;6458;42.710;23.192;2023-03-01T07:14:32;5.13;;;4.70;;
12788;SDS011;6458;42.710;23.192;2023-03-01T07:16:59;4.43;;;4.10;;
12788;SDS011;6458;42.710;23.192;2023-03-01T07:19:28;4.80;;;3.97;;
12788;SDS011;6458;42.710;23.192;2023-03-01T07:21:55;5.63;;;5.13;;
12788;SDS011;6458;42.710;23.192;2023-03-01T07:24:22;3.23;;;3.03;;
12788;SDS011;6458;42.710;23.192;2023-03-01T07:26:49;4.17;;;3.87;;
12788;SDS011;6458;42.710;23.192;2023-03-01T07:29:16;7.93;;;3.30;;
12788;SDS011;6458;42.710;23.192;2023-03-01T07:31:43;4.20;;;3.77;;
12788;SDS011;6458;42.710;23.192;2023-03-01T07:34:10;4.10;;;3.83;;
12788;SDS011;6458;42.710;23.192;2023-03-01T07:36:38;4.60;;;4.20;;
12788;SDS011;6458;42.710;23.192;2023-03-01T07:39:08;4.50;;;4.10;;
12788;SDS011;6458;42.710;23.192;2023-03-01T07:41:35;5.80;;;5.30;;
12788;SDS011;6458;42.710;23.192;2023-03-01T07:44:02;5.10;;;4.20;;
12788;SDS011;6458;42.710;23.192;2023-03-01T07:46:29;4.97;;;4.57;;
12788;SDS011;6458;42.710;23.192;2023-03-01T07:48:56;3.93;;;3.67;;
12788;SDS011;6458;42.710;23.192;2023-03-01T07:51:23;3.97;;;3.67;;
12788;SDS011;6458;42.710;23.192;2023-03-01T07:53:52;4.17;;;3.87;;
12788;SDS011;6458;42.710;23.192;2023-03-01T07:56:19;3.93;;;3.67;;
12788;SDS011;6458;42.710;23.192;2023-03-01T07:58:47;5.00;;;4.60;;
12788;SDS011;6458;42.710;23.192;2023-03-01T08:01:16;5.97;;;4.40;;
12788;SDS011;6458;42.710;23.192;2023-03-01T08:03:43;4.53;;;4.13;;
12788;SDS011;6458;42.710;23.192;2023-03-01T08:06:10;6.03;;;5.07;;
12788;SDS011;6458;42.710;23.192;2023-03-01T08:08:38;4.10;;;3.83;;
12788;SDS011;6458;42.710;23.192;2023-03-01T08:11:07;4.80;;;4.40;;
12788;SDS011;6458;42.710;23.192;2023-03-01T08:13:34;3.93;;;3.63;;
12788;SDS011;6458;42.710;23.192;2023-03-01T08:16:02;4.50;;;4.17;;
12788;SDS011;6458;42.710;23.192;2023-03-01T08:18:29;4.63;;;4.33;;
12788;SDS011;6458;42.710;23.192;2023-03-01T08:20:56;5.90;;;4.43;;
12788;SDS011;6458;42.710;23.192;2023-03-01T08:23:27;4.10;;;3.70;;
12788;SDS011;6458;42.710;23.192;2023-03-01T08:25:55;3.80;;;3.57;;
12788;SDS011;6458;42.710;23.192;2023-03-01T08:28:23;5.23;;;4.83;;
12788;SDS011;6458;42.710;23.192;2023-03-01T08:30:50;4.97;;;4.57;;
12788;SDS011;6458;42.710;23.192;2023-03-01T08:33:19;6.00;;;5.30;;
12788;SDS011;6458;42.710;23.192;2023-03-01T08:35:46;5.17;;;4.77;;
12788;SDS011;6458;42.710;23.192;2023-03-01T08:38:13;5.33;;;4.93;;
12788;SDS011;6458;42.710;23.192;2023-03-01T08:40:40;4.27;;;3.97;;
12788;SDS011;6458;42.710;23.192;2023-03-01T08:43:07;6.27;;;5.60;;
12788;SDS011;6458;42.710;23.192;2023-03-01T08:45:36;5.93;;;5.33;;
12788;SDS011;6458;42.710;23.192;2023-03-01T08:48:03;5.23;;;4.93;;
12788;SDS011;6458;42.710;23.192;2023-03-01T08:50:29;6.13;;;5.57;;
12788;SDS011;6458;42.710;23.192;2023-03-01T08:52:56;5.43;;;4.93;;
12788;SDS011;6458;42.710;23.192;2023-03-01T08:55:23;5.20;;;4.80;;
12788;SDS011;6458;42.710;23.192;2023-03-01T08:57:50;5.00;;;4.53;;
12788;SDS011;6458;42.710;23.192;2023-03-01T09:00:17;5.43;;;4.97;;
12788;SDS011;6458;42.710;23.192;2023-03-01T09:02:46;5.60;;;5.07;;
12788;SDS011;6458;42.710;23.192;2023-03-01T09:05:13;6.00;;;5.50;;
12788;SDS011;6458;42.710;23.192;2023-03-01T09:07:40;6.23;;;5.73;;
12788;SDS011;6458;42.710;23.192;2023-03-01T09:10:07;6.83;;;5.67;;
12788;SDS011;6458;42.710;23.192;2023-03-01T09:12:34;4.50;;;4.17;;
12788;SDS011;6458;42.710;23.192;2023-03-01T09:15:01;5.70;;;5.30;;
12788;SDS011;6458;42.710;23.192;2023-03-01T09:17:28;4.07;;;3.77;;
12788;SDS011;6458;42.710;23.192;2023-03-01T09:19:57;4.07;;;3.80;;
12788;SDS011;6458;42.710;23.192;2023-03-01T09:22:24;5.10;;;4.70;;
12788;SDS011;6458;42.710;23.192;2023-03-01T09:24:52;4.80;;;4.47;;
12788;SDS011;6458;42.710;23.192;2023-03-01T09:27:21;5.40;;;4.90;;
12788;SDS011;6458;42.710;23.192;2023-03-01T09:29:49;4.63;;;4.33;;
12788;SDS011;6458;42.710;23.192;2023-03-01T09:32:16;7.20;;;3.83;;
12788;SDS011;6458;42.710;23.192;2023-03-01T09:34:43;3.87;;;3.67;;
12788;SDS011;6458;42.710;23.192;2023-03-01T09:37:31;3.30;;;3.10;;
12788;SDS011;6458;42.710;23.192;2023-03-01T09:39:58;3.43;;;3.13;;
12788;SDS011;6458;42.710;23.192;2023-03-01T09:42:25;4.57;;;4.23;;
12788;SDS011;6458;42.710;23.192;2023-03-01T09:44:53;3.87;;;3.57;;
12788;SDS011;6458;42.710;23.192;2023-03-01T09:47:23;4.37;;;4.07;;
12788;SDS011;6458;42.710;23.192;2023-03-01T09:49:53;4.50;;;4.20;;
12788;SDS011;6458;42.710;23.192;2023-03-01T09:52:26;3.77;;;3.57;;
12788;SDS011;6458;42.710;23.192;2023-03-01T09:54:57;3.27;;;3.07;;
12788;SDS011;6458;42.710;23.192;2023-03-01T09:57:26;6.57;;;4.57;;
12788;SDS011;6458;42.710;23.192;2023-03-01T10:00:03;3.73;;;3.43;;
12788;SDS011;6458;42.710;23.192;2023-03-01T10:02:38;3.77;;;3.50;;
12788;SDS011;6458;42.710;23.192;2023-03-01T10:05:09;3.70;;;3.47;;
12788;SDS011;6458;42.710;23.192;2023-03-01T10:07:42;3.20;;;3.00;;
12788;SDS011;6458;42.710;23.192;2023-03-01T10:10:16;3.80;;;3.50;;
12788;SDS011;6458;42.710;23.192;2023-03-01T10:12:44;4.60;;;4.30;;
12788;SDS011;6458;42.710;23.192;2023-03-01T10:15:13;4.07;;;3.67;;
12788;SDS011;6458;42.710;23.192;2023-03-01T10:17:41;3.37;;;3.17;;
12788;SDS011;6458;42.710;23.192;2023-03-01T10:20:15;2.97;;;2.77;;
12788;SDS011;6458;42.710;23.192;2023-03-01T10:22:42;3.90;;;3.70;;
12788;SDS011;6458;42.710;23.192;2023-03-01T10:25:14;4.33;;;3.53;;
12788;SDS011;6458;42.710;23.192;2023-03-01T10:27:43;4.20;;;3.90;;
12788;SDS011;6458;42.710;23.192;2023-03-01T10:30:12;4.20;;;3.80;;
12788;SDS011;6458;42.710;23.192;2023-03-01T10:32:41;3.23;;;3.10;;
12788;SDS011;6458;42.710;23.192;2023-03-01T10:35:17;4.17;;;3.87;;
12788;SDS011;6458;42.710;23.192;2023-03-01T10:37:58;3.83;;;3.37;;
12788;SDS011;6458;42.710;23.192;2023-03-01T10:40:26;3.50;;;3.30;;
12788;SDS011;6458;42.710;23.192;2023-03-01T10:42:53;2.97;;;2.87;;
12788;SDS011;6458;42.710;23.192;2023-03-01T10:45:33;3.33;;;3.07;;
12788;SDS011;6458;42.710;23.192;2023-03-01T10:48:04;3.50;;;3.30;;
12788;SDS011;6458;42.710;23.192;2023-03-01T10:50:32;3.03;;;2.83;;
12788;SDS011;6458;42.710;23.192;2023-03-01T10:53:00;3.70;;;3.50;;
12788;SDS011;6458;42.710;23.192;2023-03-01T10:55:30;3.70;;;3.20;;
12788;SDS011;6458;42.710;23.192;2023-03-01T10:58:08;3.17;;;3.00;;
12788;SDS011;6458;42.710;23.192;2023-03-01T11:00:45;4.50;;;4.20;;
12788;SDS011;6458;42.710;23.192;2023-03-01T11:03:13;4.03;;;3.73;;
12788;SDS011;6458;42.710;23.192;2023-03-01T11:05:51;3.63;;;3.40;;
12788;SDS011;6458;42.710;23.192;2023-03-01T11:08:28;3.40;;;3.03;;
12788;SDS011;6458;42.710;23.192;2023-03-01T11:11:05;4.17;;;3.90;;
12788;SDS011;6458;42.710;23.192;2023-03-01T11:13:33;7.83;;;4.70;;
12788;SDS011;6458;42.710;23.192;2023-03-01T11:16:00;4.40;;;4.03;;
12788;SDS011;6458;42.710;23.192;2023-03-01T11:18:29;3.97;;;3.67;;
12788;SDS011;6458;42.710;23.192;2023-03-01T11:20:56;3.17;;;3.00;;
12788;SDS011;6458;42.710;23.192;2023-03-01T11:23:24;3.03;;;2.83;;
12788;SDS011;6458;42.710;23.192;2023-03-01T11:25:54;3.10;;;3.00;;
12788;SDS011;6458;42.710;23.192;2023-03-01T11:28:23;2.80;;;2.70;;
12788;SDS011;6458;42.710;23.192;2023-03-01T11:30:51;3.60;;;3.23;;
12788;SDS011;6458;42.710;23.192;2023-03-01T11:33:21;2.60;;;2.50;;
12788;SDS011;6458;42.710;23.192;2023-03-01T11:35:53;2.77;;;2.67;;
12788;SDS011;6458;42.710;23.192;2023-03-01T11:38:22;3.27;;;3.07;;
12788;SDS011;6458;42.710;23.192;2023-03-01T11:40:51;3.53;;;3.23;;
12788;SDS011;6458;42.710;23.192;2023-03-01T11:43:20;4.90;;;3.10;;
12788;SDS011;6458;42.710;23.192;2023-03-01T11:45:55;2.90;;;2.70;;
12788;SDS011;6458;42.710;23.192;2023-03-01T11:48:30;2.93;;;2.73;;
12788;SDS011;6458;42.710;23.192;2023-03-01T11:51:05;3.23;;;3.00;;
12788;SDS011;6458;42.710;23.192;2023-03-01T11:53:47;2.57;;;2.47;;
12788;SDS011;6458;42.710;23.192;2023-03-01T11:56:20;3.10;;;3.00;;
12788;SDS011;6458;42.710;23.192;2023-03-01T11:59:02;4.30;;;2.97;;
12788;SDS011;6458;42.710;23.192;2023-03-01T12:01:38;2.33;;;2.27;;
12788;SDS011;6458;42.710;23.192;2023-03-01T12:04:17;2.87;;;2.67;;
12788;SDS011;6458;42.710;23.192;2023-03-01T12:06:56;3.33;;;2.97;;
12788;SDS011;6458;42.710;23.192;2023-03-01T12:09:30;2.60;;;2.40;;
12788;SDS011;6458;42.710;23.192;2023-03-01T12:12:06;2.93;;;2.73;;
12788;SDS011;6458;42.710;23.192;2023-03-01T12:14:41;3.47;;;3.27;;
12788;SDS011;6458;42.710;23.192;2023-03-01T12:17:16;3.03;;;2.83;;
12788;SDS011;6458;42.710;23.192;2023-03-01T12:19:50;2.83;;;2.70;;
12788;SDS011;6458;42.710;23.192;2023-03-01T12:22:29;3.40;;;3.20;;
12788;SDS011;6458;42.710;23.192;2023-03-01T12:27:42;3.63;;;3.43;;
12788;SDS011;6458;42.710;23.192;2023-03-01T12:30:17;4.03;;;3.73;;
12788;SDS011;6458;42.710;23.192;2023-03-01T12:32:52;4.17;;;3.80;;
12788;SDS011;6458;42.710;23.192;2023-03-01T12:35:25;5.20;;;4.80;;
12788;SDS011;6458;42.710;23.192;2023-03-01T12:37:54;4.37;;;4.07;;
12788;SDS011;6458;42.710;23.192;2023-03-01T12:40:29;4.60;;;3.83;;
12788;SDS011;6458;42.710;23.192;2023-03-01T12:43:01;4.23;;;3.93;;
12788;SDS011;6458;42.710;23.192;2023-03-01T12:45:33;4.97;;;4.47;;
12788;SDS011;6458;42.710;23.192;2023-03-01T12:48:16;5.20;;;4.80;;
12788;SDS011;6458;42.710;23.192;2023-03-01T12:50:46;4.30;;;4.00;;
12788;SDS011;6458;42.710;23.192;2023-03-01T12:53:19;4.63;;;4.33;;
12788;SDS011;6458;42.710;23.192;2023-03-01T12:55:46;5.50;;;5.00;;
12788;SDS011;6458;42.710;23.192;2023-03-01T12:58:15;4.63;;;4.33;;
12788;SDS011;6458;42.710;23.192;2023-03-01T13:00:51;5.13;;;4.73;;
12788;SDS011;6458;42.710;23.192;2023-03-01T13:03:23;5.20;;;4.80;;
12788;SDS011;6458;42.710;23.192;2023-03-01T13:05:56;4.60;;;3.90;;
12788;SDS011;6458;42.710;23.192;2023-03-01T13:08:27;4.77;;;4.40;;
12788;SDS011;6458;42.710;23.192;2023-03-01T13:10:56;5.53;;;5.07;;
12788;SDS011;6458;42.710;23.192;2023-03-01T13:13:25;5.53;;;5.03;;
12788;SDS011;6458;42.710;23.192;2023-03-01T13:15:52;5.27;;;4.87;;
12788;SDS011;6458;42.710;23.192;2023-03-01T13:18:30;4.53;;;4.13;;
12788;SDS011;6458;42.710;23.192;2023-03-01T13:20:58;6.60;;;5.50;;
12788;SDS011;6458;42.710;23.192;2023-03-01T13:23:26;5.43;;;5.03;;
12788;SDS011;6458;42.710;23.192;2023-03-01T13:26:00;4.83;;;4.50;;
12788;SDS011;6458;42.710;23.192;2023-03-01T13:28:49;6.67;;;4.47;;
12788;SDS011;6458;42.710;23.192;2023-03-01T13:37:10;5.03;;;4.63;;
12788;SDS011;6458;42.710;23.192;2023-03-01T13:39:39;5.07;;;4.57;;
12788;SDS011;6458;42.710;23.192;2023-03-01T13:44:47;4.23;;;3.93;;
12788;SDS011;6458;42.710;23.192;2023-03-01T13:47:16;4.70;;;4.33;;
12788;SDS011;6458;42.710;23.192;2023-03-01T13:49:45;4.63;;;4.30;;
12788;SDS011;6458;42.710;23.192;2023-03-01T13:52:25;4.27;;;3.97;;
12788;SDS011;6458;42.710;23.192;2023-03-01T13:54:55;4.97;;;4.57;;
12788;SDS011;6458;42.710;23.192;2023-03-01T13:57:23;5.03;;;4.63;;
12788;SDS011;6458;42.710;23.192;2023-03-01T13:59:51;4.43;;;4.13;;
12788;SDS011;6458;42.710;23.192;2023-03-01T14:02:18;5.07;;;4.57;;
12788;SDS011;6458;42.710;23.192;2023-03-01T14:04:46;4.83;;;3.93;;
12788;SDS011;6458;42.710;23.192;2023-03-01T14:07:23;4.97;;;4.57;;
12788;SDS011;6458;42.710;23.192;2023-03-01T14:09:51;4.80;;;4.40;;
12788;SDS011;6458;42.710;23.192;2023-03-01T14:12:22;4.70;;;4.40;;
12788;SDS011;6458;42.710;23.192;2023-03-01T14:14:52;4.60;;;4.07;;
12788;SDS011;6458;42.710;23.192;2023-03-01T14:17:28;6.27;;;4.43;;
12788;SDS011;6458;42.710;23.192;2023-03-01T14:19:57;3.50;;;3.30;;
12788;SDS011;6458;42.710;23.192;2023-03-01T14:22:26;5.90;;;4.30;;
12788;SDS011;6458;42.710;23.192;2023-03-01T14:24:55;3.70;;;3.43;;
12788;SDS011;6458;42.710;23.192;2023-03-01T14:27:23;4.43;;;4.10;;
12788;SDS011;6458;42.710;23.192;2023-03-01T14:29:56;4.17;;;3.87;;
12788;SDS011;6458;42.710;23.192;2023-03-01T14:32:24;4.23;;;3.83;;
12788;SDS011;6458;42.710;23.192;2023-03-01T14:34:51;7.63;;;4.17;;
12788;SDS011;6458;42.710;23.192;2023-03-01T14:37:19;5.33;;;4.67;;
12788;SDS011;6458;42.710;23.192;2023-03-01T14:39:48;5.30;;;4.57;;
12788;SDS011;6458;42.710;23.192;2023-03-01T14:42:15;4.03;;;3.73;;
12788;SDS011;6458;42.710;23.192;2023-03-01T14:44:42;4.43;;;4.00;;
12788;SDS011;6458;42.710;23.192;2023-03-01T14:47:11;5.10;;;4.70;;
12788;SDS011;6458;42.710;23.192;2023-03-01T14:49:39;4.37;;;4.07;;
12788;SDS011;6458;42.710;23.192;2023-03-01T14:52:07;4.97;;;4.53;;
12788;SDS011;6458;42.710;23.192;2023-03-01T14:54:42;7.57;;;5.00;;
12788;SDS011;6458;42.710;23.192;2023-03-01T14:57:14;5.40;;;4.90;;
12788;SDS011;6458;42.710;23.192;2023-03-01T14:59:42;3.60;;;3.40;;
12788;SDS011;6458;42.710;23.192;2023-03-01T15:02:11;4.17;;;3.77;;
12788;SDS011;6458;42.710;23.192;2023-03-01T15:04:42;4.90;;;4.47;;
12788;SDS011;6458;42.710;23.192;2023-03-01T15:07:09;4.43;;;4.00;;
12788;SDS011;6458;42.710;23.192;2023-03-01T15:09:38;4.40;;;4.00;;
12788;SDS011;6458;42.710;23.192;2023-03-01T15:17:56;4.17;;;3.77;;
12788;SDS011;6458;42.710;23.192;2023-03-01T15:20:25;4.67;;;4.23;;
12788;SDS011;6458;42.710;23.192;2023-03-01T15:22:54;4.13;;;3.83;;